createdAt,value
2019-05-25T00:00:43.124Z,15.50
2019-05-25T00:05:48.987Z,15.40
2019-05-25T00:10:57.243Z,15.40
2019-05-25T00:16:07.566Z,15.30
2019-05-25T00:21:09.633Z,15.30
2019-05-25T00:26:14.118Z,15.30
2019-05-25T00:31:18.816Z,15.20
2019-05-25T00:36:26.525Z,15.10
2019-05-25T00:41:47.381Z,15.10
2019-05-25T00:46:51.891Z,15.00
2019-05-25T00:52:06.063Z,15.00
2019-05-25T00:57:10.708Z,14.90
2019-05-25T01:02:16.061Z,14.90
2019-05-25T01:07:32.931Z,14.80
2019-05-25T01:12:38.490Z,14.80
2019-05-25T01:17:45.947Z,14.70
2019-05-25T01:22:53.794Z,14.70
2019-05-25T01:27:58.851Z,14.60
2019-05-25T01:33:06.510Z,14.60
2019-05-25T01:38:15.535Z,14.50
2019-05-25T01:43:21.856Z,14.50
2019-05-25T01:48:36.299Z,14.40
2019-05-25T01:53:40.930Z,14.40
2019-05-25T01:58:48.608Z,14.40
2019-05-25T02:03:53.236Z,14.30
2019-05-25T02:09:01.783Z,14.30
2019-05-25T02:14:08.947Z,14.20
2019-05-25T02:19:13.597Z,14.20
2019-05-25T02:24:19.193Z,14.10
2019-05-25T02:29:26.471Z,14.10
2019-05-25T02:34:31.092Z,14.10
2019-05-25T02:39:39.704Z,14.00
2019-05-25T02:44:50.518Z,14.00
2019-05-25T02:49:55.066Z,13.90
2019-05-25T02:55:00.165Z,13.90
2019-05-25T03:00:10.382Z,13.90
2019-05-25T03:05:17.114Z,13.80
2019-05-25T03:10:21.976Z,13.80
2019-05-25T03:15:31.594Z,13.80
2019-05-25T03:20:39.315Z,13.70
2019-05-25T03:25:50.041Z,13.70
2019-05-25T03:30:52.996Z,13.70
2019-05-25T03:35:57.634Z,13.60
2019-05-25T03:41:13.283Z,13.60
2019-05-25T03:46:19.991Z,13.50
2019-05-25T03:51:30.116Z,13.40
2019-05-25T03:56:55.182Z,13.40
2019-05-25T04:01:52.611Z,13.30
2019-05-25T04:06:59.201Z,13.20
2019-05-25T04:12:04.971Z,13.20
2019-05-25T04:17:14.120Z,13.10
2019-05-25T04:22:21.335Z,13.10
2019-05-25T04:27:29.746Z,13.10
2019-05-25T04:32:42.157Z,13.00
2019-05-25T04:37:53.120Z,13.00
2019-05-25T04:42:59.535Z,13.00
2019-05-25T04:48:07.514Z,12.90
2019-05-25T04:53:12.003Z,12.90
2019-05-25T04:58:27.213Z,12.90
2019-05-25T05:03:31.737Z,12.90
2019-05-25T05:08:53.455Z,12.90
2019-05-25T05:14:04.664Z,12.90
2019-05-25T05:19:09.647Z,13.00
2019-05-25T05:24:16.526Z,13.00
2019-05-25T05:29:29.328Z,13.10
2019-05-25T05:34:39.302Z,13.10
2019-05-25T05:39:50.217Z,13.20
2019-05-25T05:45:07.817Z,13.20
2019-05-25T05:50:12.605Z,13.30
2019-05-25T05:55:26.591Z,13.30
2019-05-25T06:00:37.744Z,13.30
2019-05-25T06:05:46.482Z,13.40
2019-05-25T06:10:51.130Z,13.40
2019-05-25T06:15:57.196Z,13.40
2019-05-25T06:21:29.352Z,13.50
2019-05-25T06:26:34.981Z,13.50
2019-05-25T06:31:46.879Z,13.50
2019-05-25T06:36:52.949Z,13.60
2019-05-25T06:42:09.936Z,13.60
2019-05-25T06:47:22.262Z,13.60
2019-05-25T06:52:31.132Z,13.70
2019-05-25T06:57:43.011Z,13.70
2019-05-25T07:02:49.597Z,13.80
2019-05-25T07:07:54.873Z,13.90
2019-05-25T07:13:00.399Z,14.00
2019-05-25T07:18:09.752Z,14.00
2019-05-25T07:23:15.547Z,14.10
2019-05-25T07:28:22.297Z,14.10
2019-05-25T07:33:26.957Z,14.10
2019-05-25T07:38:35.705Z,14.10
2019-05-25T07:43:43.184Z,14.20
2019-05-25T07:48:50.479Z,14.20
2019-05-25T07:53:58.004Z,14.20
2019-05-25T07:59:02.470Z,14.30
2019-05-25T08:04:09.678Z,14.30
2019-05-25T08:09:22.172Z,14.30
2019-05-25T08:14:28.208Z,14.30
2019-05-25T08:19:32.885Z,14.40
2019-05-25T08:24:42.081Z,14.40
2019-05-25T08:29:48.273Z,14.40
2019-05-25T08:35:06.253Z,14.40
2019-05-25T08:40:14.287Z,14.40
2019-05-25T08:45:21.284Z,14.50
2019-05-25T08:50:38.134Z,14.50
2019-05-25T08:55:41.979Z,14.50
2019-05-25T09:00:47.903Z,14.60
2019-05-25T09:05:58.325Z,14.60
2019-05-25T09:11:10.445Z,14.70
2019-05-25T09:16:19.037Z,14.80
2019-05-25T09:21:29.302Z,14.80
2019-05-25T09:26:35.528Z,14.90
2019-05-25T09:31:45.987Z,15.00
2019-05-25T09:36:50.508Z,15.00
2019-05-25T09:41:57.629Z,15.10
2019-05-25T09:47:06.045Z,15.10
2019-05-25T09:52:10.526Z,15.20
2019-05-25T09:57:17.709Z,15.30
2019-05-25T10:02:22.309Z,15.30
2019-05-25T10:07:31.523Z,15.40
2019-05-25T10:12:39.720Z,15.40
2019-05-25T10:17:45.780Z,15.40
2019-05-25T10:22:50.278Z,15.50
2019-05-25T10:27:54.843Z,15.60
2019-05-25T10:33:00.112Z,15.70
2019-05-25T10:38:06.349Z,15.80
2019-05-25T10:43:10.924Z,15.90
2019-05-25T10:48:34.397Z,16.00
2019-05-25T10:53:48.563Z,16.20
2019-05-25T10:59:02.834Z,16.30
2019-05-25T11:03:59.844Z,16.40
2019-05-25T11:09:27.369Z,16.50
2019-05-25T11:14:34.692Z,16.50
2019-05-25T11:19:40.751Z,16.60
2019-05-25T11:24:47.066Z,16.70
2019-05-25T11:29:51.564Z,16.80
2019-05-25T11:35:00.212Z,16.90
2019-05-25T11:40:09.418Z,17.00
2019-05-25T11:45:14.649Z,17.10
2019-05-25T11:50:21.687Z,17.20
2019-05-25T11:55:30.215Z,17.30
2019-05-25T12:00:36.289Z,17.40
2019-05-25T12:05:45.949Z,17.40
2019-05-25T12:10:51.208Z,17.50
2019-05-25T12:15:56.449Z,17.80
2019-05-25T12:21:17.312Z,17.70
2019-05-25T12:26:25.740Z,17.80
2019-05-25T12:31:40.834Z,17.90
2019-05-25T12:36:48.712Z,17.90
2019-05-25T12:41:53.199Z,18.00
2019-05-25T12:46:57.582Z,18.00
2019-05-25T12:52:01.944Z,18.00
2019-05-25T12:57:13.663Z,18.00
2019-05-25T13:02:18.180Z,18.00
2019-05-25T13:07:22.889Z,18.10
2019-05-25T13:12:30.517Z,18.00
2019-05-25T13:17:45.428Z,18.00
2019-05-25T13:23:11.197Z,18.00
2019-05-25T13:28:21.504Z,18.00
2019-05-25T13:33:38.922Z,17.90
2019-05-25T13:38:45.155Z,17.90
2019-05-25T13:43:54.063Z,17.90
2019-05-25T13:49:00.160Z,17.90
2019-05-25T13:54:06.782Z,17.90
2019-05-25T13:59:16.114Z,17.90
2019-05-25T14:04:20.765Z,17.90
2019-05-25T14:09:31.510Z,17.80
2019-05-25T14:14:39.180Z,17.90
2019-05-25T14:19:58.970Z,17.90
2019-05-25T14:25:09.904Z,17.90
2019-05-25T14:30:19.410Z,17.90
2019-05-25T14:35:23.948Z,17.90
2019-05-25T14:40:33.204Z,18.00
2019-05-25T14:45:37.583Z,18.00
2019-05-25T14:50:43.007Z,18.10
2019-05-25T14:55:47.551Z,18.20
2019-05-25T15:00:52.010Z,18.20
2019-05-25T15:05:59.246Z,18.40
2019-05-25T15:11:08.269Z,18.50
2019-05-25T15:16:14.808Z,18.60
2019-05-25T15:21:22.469Z,18.70
2019-05-25T15:26:30.311Z,18.80
2019-05-25T15:31:40.063Z,18.90
2019-05-25T15:36:46.452Z,18.90
2019-05-25T15:41:52.155Z,19.00
2019-05-25T15:46:59.133Z,19.10
2019-05-25T15:52:08.476Z,19.10
2019-05-25T15:57:16.654Z,19.20
2019-05-25T16:02:35.730Z,19.30
2019-05-25T16:07:32.693Z,19.30
2019-05-25T16:12:42.650Z,19.30
2019-05-25T16:17:51.423Z,19.40
2019-05-25T16:22:55.809Z,19.40
2019-05-25T16:28:00.202Z,19.50
2019-05-25T16:33:12.188Z,19.50
2019-05-25T16:38:11.264Z,19.50
2019-05-25T16:43:15.888Z,19.50
2019-05-25T16:48:20.264Z,19.60
2019-05-25T16:53:26.414Z,19.50
2019-05-25T16:58:34.262Z,19.60
2019-05-25T17:03:38.656Z,19.50
2019-05-25T17:08:48.263Z,19.50
2019-05-25T17:13:53.109Z,19.50
2019-05-25T17:19:05.016Z,19.50
2019-05-25T17:24:09.531Z,19.50
2019-05-25T17:29:13.922Z,19.40
2019-05-25T17:34:18.346Z,19.40
2019-05-25T17:39:24.317Z,19.40
2019-05-25T17:44:31.674Z,19.40
2019-05-25T17:49:36.142Z,19.40
2019-05-25T17:54:43.808Z,19.40
2019-05-25T17:59:49.828Z,19.40
2019-05-25T18:04:54.315Z,19.40
2019-05-25T18:09:58.809Z,19.40
2019-05-25T18:15:12.086Z,19.40
2019-05-25T18:20:18.473Z,19.40
2019-05-25T18:31:01.819Z,19.30
2019-05-25T18:36:09.906Z,19.20
2019-05-25T18:41:15.916Z,19.20
2019-05-25T18:46:20.592Z,19.20
2019-05-25T18:51:27.142Z,19.10
2019-05-25T18:56:31.637Z,19.10
2019-05-25T19:01:42.643Z,19.10
2019-05-25T19:06:55.241Z,19.00
2019-05-25T19:12:12.346Z,19.00
2019-05-25T19:17:20.238Z,19.00
2019-05-25T19:22:28.455Z,18.90
2019-05-25T19:27:36.675Z,19.00
2019-05-25T19:32:47.198Z,18.90
2019-05-25T19:37:52.770Z,18.90
2019-05-25T19:42:58.950Z,18.80
2019-05-25T19:48:04.422Z,18.80
2019-05-25T19:53:12.839Z,18.80
2019-05-25T19:58:22.729Z,18.70
2019-05-25T20:03:27.327Z,18.70
2019-05-25T20:08:35.709Z,18.70
2019-05-25T20:13:41.778Z,18.60
2019-05-25T20:18:50.576Z,18.70
2019-05-25T20:24:05.303Z,18.60
2019-05-25T20:29:09.814Z,18.60
2019-05-25T20:34:17.145Z,18.60
2019-05-25T20:39:29.153Z,18.50
2019-05-25T20:44:35.325Z,18.50
2019-05-25T20:49:45.196Z,18.50
2019-05-25T20:54:57.068Z,18.40
2019-05-25T21:00:03.382Z,18.40
2019-05-25T21:05:10.676Z,18.40
2019-05-25T21:10:17.824Z,18.30
2019-05-25T21:15:24.285Z,18.30
2019-05-25T21:20:33.914Z,18.30
2019-05-25T21:25:51.480Z,18.20
2019-05-25T21:31:27.770Z,18.20
2019-05-25T21:36:35.786Z,18.10
2019-05-25T21:41:44.648Z,18.00
2019-05-25T21:46:48.031Z,17.90
2019-05-25T21:51:56.802Z,17.90
2019-05-25T21:57:02.336Z,17.80
2019-05-25T22:02:09.079Z,17.70
2019-05-25T22:07:13.376Z,17.70
2019-05-25T22:12:24.620Z,17.70
2019-05-25T22:17:26.332Z,17.60
2019-05-25T22:22:31.825Z,17.50
2019-05-25T22:27:37.952Z,17.40
2019-05-25T22:32:45.906Z,17.40
2019-05-25T22:37:51.980Z,17.30
2019-05-25T22:42:59.062Z,17.20
2019-05-25T22:48:03.545Z,17.10
2019-05-25T22:53:09.608Z,17.10
2019-05-25T22:58:14.756Z,17.00
2019-05-25T23:03:29.257Z,16.90
2019-05-25T23:08:45.964Z,16.90
2019-05-25T23:13:53.570Z,16.80
2019-05-25T23:18:59.133Z,16.70
2019-05-25T23:24:05.150Z,16.60
2019-05-25T23:29:16.484Z,16.50
2019-05-25T23:34:29.279Z,16.50
2019-05-25T23:39:47.622Z,16.40
2019-05-25T23:44:52.184Z,16.40
2019-05-25T23:49:59.732Z,16.30
2019-05-25T23:55:08.146Z,16.20
